createdAt,value
2019-06-25T00:00:11.275Z,18.76
2019-06-25T00:01:11.217Z,18.89
2019-06-25T00:02:11.137Z,18.89
2019-06-25T00:03:11.039Z,18.85
2019-06-25T00:04:10.999Z,18.79
2019-06-25T00:05:10.878Z,18.71
2019-06-25T00:06:10.899Z,18.66
2019-06-25T00:07:10.698Z,18.71
2019-06-25T00:08:10.594Z,18.60
2019-06-25T00:09:10.530Z,18.67
2019-06-25T00:10:10.436Z,18.75
2019-06-25T00:11:10.371Z,18.75
2019-06-25T00:12:10.264Z,18.81
2019-06-25T00:13:10.192Z,18.75
2019-06-25T00:14:10.101Z,18.79
2019-06-25T00:15:10.034Z,18.70
2019-06-25T00:16:09.949Z,18.79
2019-06-25T00:17:09.874Z,18.75
2019-06-25T00:18:09.787Z,18.71
2019-06-25T00:19:09.701Z,18.74
2019-06-25T00:20:09.674Z,18.71
2019-06-25T00:21:09.517Z,18.68
2019-06-25T00:22:09.439Z,18.71
2019-06-25T00:23:09.374Z,18.64
2019-06-25T00:24:09.277Z,18.58
2019-06-25T00:25:09.206Z,18.61
2019-06-25T00:26:09.107Z,18.61
2019-06-25T00:27:09.039Z,18.52
2019-06-25T00:28:08.930Z,18.52
2019-06-25T00:29:08.874Z,18.54
2019-06-25T00:30:08.791Z,18.57
2019-06-25T00:31:08.696Z,18.42
2019-06-25T00:32:08.602Z,18.39
2019-06-25T00:33:08.535Z,18.45
2019-06-25T00:34:08.456Z,18.34
2019-06-25T00:35:08.363Z,18.49
2019-06-25T00:36:08.300Z,18.41
2019-06-25T00:37:08.206Z,18.33
2019-06-25T00:38:08.158Z,18.34
2019-06-25T00:39:08.018Z,18.33
2019-06-25T00:40:07.951Z,18.46
2019-06-25T00:41:07.882Z,18.45
2019-06-25T00:42:07.780Z,18.41
2019-06-25T00:43:07.741Z,18.31
2019-06-25T00:44:07.692Z,18.26
2019-06-25T00:45:07.560Z,18.31
2019-06-25T00:46:07.454Z,18.26
2019-06-25T00:47:07.369Z,18.34
2019-06-25T00:48:07.278Z,18.30
2019-06-25T00:49:07.174Z,18.34
2019-06-25T00:50:07.125Z,18.42
2019-06-25T00:51:07.030Z,18.41
2019-06-25T00:52:06.946Z,18.38
2019-06-25T00:53:06.852Z,18.34
2019-06-25T00:54:06.778Z,18.46
2019-06-25T00:55:06.731Z,18.43
2019-06-25T00:56:06.640Z,18.34
2019-06-25T00:57:06.546Z,18.34
2019-06-25T00:58:06.434Z,18.31
2019-06-25T00:59:06.383Z,18.23
2019-06-25T01:00:13.158Z,18.26
2019-06-25T01:01:06.170Z,18.30
2019-06-25T01:02:06.145Z,18.33
2019-06-25T01:03:06.044Z,18.23
2019-06-25T01:04:05.950Z,18.24
2019-06-25T01:05:05.867Z,18.26
2019-06-25T01:06:05.800Z,18.34
2019-06-25T01:07:05.688Z,18.27
2019-06-25T01:08:05.588Z,18.41
2019-06-25T01:09:05.515Z,18.36
2019-06-25T01:10:05.427Z,18.30
2019-06-25T01:11:05.334Z,18.27
2019-06-25T01:12:05.283Z,18.34
2019-06-25T01:13:05.185Z,18.33
2019-06-25T01:14:05.139Z,18.26
2019-06-25T01:15:05.067Z,18.26
2019-06-25T01:16:04.999Z,18.30
2019-06-25T01:17:04.896Z,18.24
2019-06-25T01:18:04.765Z,18.23
2019-06-25T01:19:04.677Z,18.15
2019-06-25T01:20:04.603Z,18.17
2019-06-25T01:21:04.505Z,18.20
2019-06-25T01:22:04.453Z,18.26
2019-06-25T01:23:04.365Z,18.23
2019-06-25T01:24:04.257Z,18.15
2019-06-25T01:25:04.185Z,18.23
2019-06-25T01:26:04.091Z,18.26
2019-06-25T01:27:04.018Z,18.36
2019-06-25T01:28:03.965Z,18.41
2019-06-25T01:29:03.846Z,18.52
2019-06-25T01:30:03.785Z,18.52
2019-06-25T01:31:03.695Z,18.36
2019-06-25T01:32:03.597Z,18.26
2019-06-25T01:33:03.548Z,18.26
2019-06-25T01:34:03.429Z,18.27
2019-06-25T01:35:03.330Z,18.24
2019-06-25T01:36:03.265Z,18.20
2019-06-25T01:37:03.207Z,18.24
2019-06-25T01:38:03.090Z,18.15
2019-06-25T01:39:03.015Z,18.13
2019-06-25T01:40:02.930Z,18.18
2019-06-25T01:41:02.831Z,18.15
2019-06-25T01:42:02.745Z,18.11
2019-06-25T01:43:02.676Z,18.18
2019-06-25T01:44:02.584Z,18.24
2019-06-25T01:45:02.503Z,18.03
2019-06-25T01:46:02.431Z,17.96
2019-06-25T01:47:02.337Z,18.15
2019-06-25T01:48:02.253Z,18.17
2019-06-25T01:49:02.186Z,18.11
2019-06-25T01:50:02.083Z,18.26
2019-06-25T01:51:02.006Z,18.23
2019-06-25T01:52:01.909Z,18.28
2019-06-25T01:53:02.181Z,18.27
2019-06-25T01:54:01.763Z,18.38
2019-06-25T01:55:01.698Z,18.30
2019-06-25T01:56:01.615Z,18.31
2019-06-25T01:57:01.532Z,18.31
2019-06-25T01:58:01.442Z,18.34
2019-06-25T01:59:01.334Z,18.30
2019-06-25T02:00:01.251Z,18.27
2019-06-25T02:01:01.156Z,18.28
2019-06-25T02:02:01.115Z,18.20
2019-06-25T02:03:00.986Z,18.12
2019-06-25T02:04:00.899Z,18.15
2019-06-25T02:05:00.847Z,18.23
2019-06-25T02:06:00.741Z,18.21
2019-06-25T02:07:00.696Z,18.20
2019-06-25T02:08:00.566Z,18.26
2019-06-25T02:09:00.525Z,18.18
2019-06-25T02:10:00.409Z,18.06
2019-06-25T02:11:00.314Z,18.09
2019-06-25T02:12:00.252Z,18.11
2019-06-25T02:13:00.157Z,18.08
2019-06-25T02:14:00.079Z,18.06
2019-06-25T02:15:00.019Z,18.12
2019-06-25T02:15:59.897Z,17.94
2019-06-25T02:16:59.819Z,18.01
2019-06-25T02:17:59.734Z,18.06
2019-06-25T02:18:59.649Z,18.13
2019-06-25T02:19:59.576Z,18.15
2019-06-25T02:20:59.498Z,18.12
2019-06-25T02:21:59.389Z,18.08
2019-06-25T02:22:59.312Z,17.96
2019-06-25T02:23:59.230Z,18.01
2019-06-25T02:24:59.144Z,18.08
2019-06-25T02:25:59.043Z,18.08
2019-06-25T02:26:58.978Z,17.97
2019-06-25T02:27:58.890Z,17.99
2019-06-25T02:28:58.844Z,17.97
2019-06-25T02:29:58.754Z,17.91
2019-06-25T02:31:07.535Z,17.87
2019-06-25T02:31:58.553Z,17.93
2019-06-25T02:32:58.494Z,17.87
2019-06-25T02:33:58.442Z,17.93
2019-06-25T02:34:58.335Z,17.90
2019-06-25T02:35:58.228Z,17.83
2019-06-25T02:36:58.121Z,18.01
2019-06-25T02:37:58.046Z,17.94
2019-06-25T02:38:57.980Z,17.84
2019-06-25T02:39:57.884Z,17.84
2019-06-25T02:40:57.814Z,17.86
2019-06-25T02:41:57.722Z,17.88
2019-06-25T02:42:57.627Z,17.84
2019-06-25T02:43:57.564Z,17.78
2019-06-25T02:44:57.467Z,17.78
2019-06-25T02:45:57.418Z,17.83
2019-06-25T02:46:57.284Z,17.86
2019-06-25T02:47:57.211Z,17.87
2019-06-25T02:48:57.142Z,17.90
2019-06-25T02:49:57.060Z,17.86
2019-06-25T02:50:56.960Z,17.72
2019-06-25T02:51:56.875Z,17.72
2019-06-25T02:52:56.805Z,17.71
2019-06-25T02:53:56.708Z,17.75
2019-06-25T02:54:56.614Z,17.88
2019-06-25T02:55:56.551Z,17.75
2019-06-25T02:56:56.514Z,17.78
2019-06-25T02:57:56.378Z,17.75
2019-06-25T02:58:56.272Z,17.75
2019-06-25T02:59:56.200Z,17.86
2019-06-25T03:00:56.115Z,17.84
2019-06-25T03:01:56.020Z,17.84
2019-06-25T03:02:55.937Z,17.86
2019-06-25T03:03:55.873Z,17.93
2019-06-25T03:04:55.800Z,17.88
2019-06-25T03:05:55.746Z,17.88
2019-06-25T03:06:55.605Z,17.83
2019-06-25T03:07:55.534Z,17.87
2019-06-25T03:08:55.445Z,17.78
2019-06-25T03:09:55.349Z,17.81
2019-06-25T03:10:55.300Z,17.68
2019-06-25T03:11:55.176Z,17.76
2019-06-25T03:12:55.093Z,17.79
2019-06-25T03:13:55.044Z,17.75
2019-06-25T03:14:54.946Z,17.88
2019-06-25T03:15:54.858Z,17.88
2019-06-25T03:16:54.778Z,17.90
2019-06-25T03:17:54.701Z,17.88
2019-06-25T03:18:54.595Z,17.83
2019-06-25T03:19:54.559Z,17.90
2019-06-25T03:20:54.444Z,17.87
2019-06-25T03:21:54.351Z,17.84
2019-06-25T03:22:54.259Z,17.81
2019-06-25T03:23:54.195Z,17.97
2019-06-25T03:24:54.102Z,17.86
2019-06-25T03:25:54.028Z,17.86
2019-06-25T03:26:53.924Z,17.73
2019-06-25T03:27:53.865Z,17.87
2019-06-25T03:28:53.759Z,17.88
2019-06-25T03:29:53.691Z,17.86
2019-06-25T03:30:53.594Z,17.72
2019-06-25T03:32:06.402Z,17.88
2019-06-25T03:32:53.547Z,17.84
2019-06-25T03:33:53.337Z,17.87
2019-06-25T03:34:53.261Z,17.84
2019-06-25T03:35:53.199Z,17.84
2019-06-25T03:36:53.092Z,17.87
2019-06-25T03:37:53.021Z,17.86
2019-06-25T03:38:52.917Z,17.94
2019-06-25T03:39:52.900Z,17.96
2019-06-25T03:40:52.736Z,17.99
2019-06-25T03:41:52.663Z,17.90
2019-06-25T03:42:52.574Z,17.96
2019-06-25T03:43:52.505Z,17.90
2019-06-25T03:44:52.429Z,17.97
2019-06-25T03:45:52.342Z,18.02
2019-06-25T03:46:52.259Z,18.05
2019-06-25T03:47:52.151Z,18.03
2019-06-25T03:48:52.092Z,18.08
2019-06-25T03:49:52.016Z,18.18
2019-06-25T03:50:51.914Z,18.17
2019-06-25T03:51:51.849Z,18.17
2019-06-25T03:52:51.740Z,18.09
2019-06-25T03:53:51.648Z,18.08
2019-06-25T03:54:51.617Z,18.05
2019-06-25T03:55:51.530Z,18.08
2019-06-25T03:56:51.394Z,18.09
2019-06-25T03:57:51.355Z,18.13
2019-06-25T03:58:51.240Z,18.17
2019-06-25T03:59:51.147Z,18.15
2019-06-25T04:00:51.092Z,18.26
2019-06-25T04:01:50.983Z,18.21
2019-06-25T04:02:50.902Z,18.30
2019-06-25T04:03:50.797Z,18.26
2019-06-25T04:04:50.722Z,18.13
2019-06-25T04:05:50.687Z,18.03
2019-06-25T04:06:50.574Z,18.02
2019-06-25T04:07:50.519Z,18.02
2019-06-25T04:08:50.398Z,17.97
2019-06-25T04:09:50.328Z,18.11
2019-06-25T04:10:50.224Z,18.15
2019-06-25T04:11:52.677Z,18.18
2019-06-25T04:12:50.052Z,18.23
2019-06-25T04:13:49.968Z,18.36
2019-06-25T04:14:49.886Z,18.39
2019-06-25T04:15:49.816Z,18.57
2019-06-25T04:16:49.764Z,18.56
2019-06-25T04:17:49.707Z,18.61
2019-06-25T04:18:49.629Z,18.60
2019-06-25T04:19:49.612Z,18.66
2019-06-25T04:20:49.394Z,18.70
2019-06-25T04:21:49.322Z,18.63
2019-06-25T04:22:49.214Z,18.68
2019-06-25T04:23:49.166Z,18.68
2019-06-25T04:24:49.044Z,18.64
2019-06-25T04:25:49.005Z,18.66
2019-06-25T04:26:48.900Z,18.71
2019-06-25T04:27:48.778Z,18.71
2019-06-25T04:28:48.708Z,18.74
2019-06-25T04:29:48.617Z,18.74
2019-06-25T04:30:48.569Z,18.79
2019-06-25T04:31:48.480Z,18.71
2019-06-25T04:32:48.382Z,18.81
2019-06-25T04:33:48.308Z,18.78
2019-06-25T04:34:48.217Z,18.71
2019-06-25T04:35:48.135Z,18.85
2019-06-25T04:36:48.033Z,18.86
2019-06-25T04:37:48.000Z,18.85
2019-06-25T04:38:47.889Z,19.00
2019-06-25T04:39:47.803Z,18.86
2019-06-25T04:40:47.717Z,18.93
2019-06-25T04:41:47.637Z,18.86
2019-06-25T04:42:47.561Z,18.85
2019-06-25T04:43:47.481Z,18.86
2019-06-25T04:44:47.393Z,18.91
2019-06-25T04:45:47.304Z,18.91
2019-06-25T04:46:47.247Z,19.00
2019-06-25T04:47:47.123Z,19.05
2019-06-25T04:48:47.042Z,19.04
2019-06-25T04:49:46.981Z,19.05
2019-06-25T04:50:46.899Z,19.07
2019-06-25T04:51:46.781Z,19.04
2019-06-25T04:52:46.699Z,19.05
2019-06-25T04:53:46.636Z,19.07
2019-06-25T04:54:46.541Z,19.07
2019-06-25T04:55:46.445Z,19.05
2019-06-25T04:56:46.347Z,19.04
2019-06-25T04:57:46.282Z,19.22
2019-06-25T04:58:46.211Z,19.30
2019-06-25T04:59:46.109Z,19.34
2019-06-25T05:00:46.032Z,19.39
2019-06-25T05:01:45.946Z,19.53
2019-06-25T05:02:50.085Z,19.60
2019-06-25T05:03:45.785Z,19.62
2019-06-25T05:04:45.687Z,19.68
2019-06-25T05:05:45.635Z,19.77
2019-06-25T05:06:45.534Z,19.79
2019-06-25T05:07:45.452Z,19.87
2019-06-25T05:08:45.378Z,19.93
2019-06-25T05:09:45.314Z,19.97
2019-06-25T05:10:45.189Z,20.17
2019-06-25T05:11:45.111Z,20.12
2019-06-25T05:12:45.031Z,20.18
2019-06-25T05:13:44.955Z,20.14
2019-06-25T05:14:44.869Z,20.26
2019-06-25T05:15:44.784Z,20.27
2019-06-25T05:16:44.686Z,20.33
2019-06-25T05:17:44.628Z,20.46
2019-06-25T05:18:44.544Z,20.58
2019-06-25T05:19:44.450Z,20.61
2019-06-25T05:20:44.372Z,20.58
2019-06-25T05:21:44.284Z,20.67
2019-06-25T05:22:44.207Z,20.85
2019-06-25T05:23:44.114Z,21.01
2019-06-25T05:24:44.029Z,21.16
2019-06-25T05:25:43.946Z,21.38
2019-06-25T05:26:43.873Z,21.41
2019-06-25T05:27:43.769Z,21.58
2019-06-25T05:28:43.755Z,21.66
2019-06-25T05:29:43.610Z,21.69
2019-06-25T05:30:43.520Z,21.66
2019-06-25T05:31:43.428Z,21.74
2019-06-25T05:32:43.388Z,21.71
2019-06-25T05:33:43.273Z,21.75
2019-06-25T05:34:43.209Z,21.77
2019-06-25T05:35:43.095Z,21.75
2019-06-25T05:36:43.032Z,21.82
2019-06-25T05:37:42.971Z,21.71
2019-06-25T05:38:42.866Z,21.71
2019-06-25T05:39:42.794Z,21.74
2019-06-25T05:40:42.744Z,21.77
2019-06-25T05:41:42.626Z,21.74
2019-06-25T05:42:42.538Z,21.75
2019-06-25T05:43:42.446Z,21.73
2019-06-25T05:44:42.357Z,21.88
2019-06-25T05:45:42.304Z,21.90
2019-06-25T05:46:42.218Z,21.74
2019-06-25T05:47:42.112Z,21.90
2019-06-25T05:48:42.042Z,21.81
2019-06-25T05:49:41.955Z,21.91
2019-06-25T05:50:41.858Z,21.75
2019-06-25T05:51:41.789Z,21.82
2019-06-25T05:52:41.696Z,21.91
2019-06-25T05:53:41.619Z,21.94
2019-06-25T05:54:41.540Z,22.03
2019-06-25T05:55:41.482Z,22.04
2019-06-25T05:56:41.376Z,22.11
2019-06-25T05:57:41.312Z,22.15
2019-06-25T05:58:41.196Z,22.27
2019-06-25T05:59:41.131Z,22.27
2019-06-25T06:00:41.041Z,22.33
2019-06-25T06:01:40.961Z,22.31
2019-06-25T06:02:40.880Z,22.49
2019-06-25T06:03:40.815Z,22.40
2019-06-25T06:04:40.725Z,22.48
2019-06-25T06:05:40.630Z,22.49
2019-06-25T06:06:40.556Z,22.55
2019-06-25T06:07:40.449Z,22.66
2019-06-25T06:08:40.379Z,22.66
2019-06-25T06:09:40.333Z,22.64
2019-06-25T06:10:40.235Z,22.62
2019-06-25T06:11:40.119Z,22.59
2019-06-25T06:12:40.069Z,22.56
2019-06-25T06:13:39.989Z,22.59
2019-06-25T06:14:39.960Z,22.58
2019-06-25T06:15:39.837Z,22.62
2019-06-25T06:16:39.712Z,22.62
2019-06-25T06:17:39.645Z,22.61
2019-06-25T06:18:39.569Z,22.71
2019-06-25T06:19:39.484Z,22.61
2019-06-25T06:20:39.404Z,22.66
2019-06-25T06:21:39.338Z,22.62
2019-06-25T06:22:39.504Z,22.74
2019-06-25T06:23:39.185Z,22.73
2019-06-25T06:24:39.066Z,22.83
2019-06-25T06:25:38.999Z,22.80
2019-06-25T06:26:38.895Z,22.85
2019-06-25T06:27:38.817Z,22.78
2019-06-25T06:28:38.759Z,22.93
2019-06-25T06:29:38.640Z,22.92
2019-06-25T06:30:38.589Z,22.92
2019-06-25T06:31:38.484Z,22.99
2019-06-25T06:32:38.411Z,22.98
2019-06-25T06:33:38.346Z,23.06
2019-06-25T06:34:38.244Z,23.17
2019-06-25T06:35:38.204Z,23.18
2019-06-25T06:36:38.119Z,23.22
2019-06-25T06:37:38.024Z,23.22
2019-06-25T06:38:37.915Z,23.36
2019-06-25T06:39:37.835Z,23.33
2019-06-25T06:40:37.776Z,23.42
2019-06-25T06:41:37.671Z,23.44
2019-06-25T06:42:37.603Z,23.61
2019-06-25T06:43:37.513Z,23.59
2019-06-25T06:44:37.406Z,23.73
2019-06-25T06:45:37.377Z,23.82
2019-06-25T06:46:37.304Z,23.78
2019-06-25T06:47:37.207Z,23.86
2019-06-25T06:48:37.131Z,23.96
2019-06-25T06:49:37.026Z,24.06
2019-06-25T06:50:36.930Z,24.11
2019-06-25T06:51:36.861Z,24.19
2019-06-25T06:52:36.766Z,24.26
2019-06-25T06:53:36.749Z,24.25
2019-06-25T06:54:36.638Z,24.22
2019-06-25T06:55:36.541Z,24.23
2019-06-25T06:56:36.461Z,24.11
2019-06-25T06:57:36.406Z,24.10
2019-06-25T06:58:36.269Z,24.08
2019-06-25T06:59:36.219Z,24.08
2019-06-25T07:00:36.164Z,24.08
2019-06-25T07:01:36.042Z,24.06
2019-06-25T07:02:35.966Z,24.04
2019-06-25T07:03:51.649Z,24.15
2019-06-25T07:04:35.807Z,24.16
2019-06-25T07:05:35.696Z,24.22
2019-06-25T07:06:35.618Z,24.19
2019-06-25T07:07:35.530Z,24.25
2019-06-25T07:08:35.471Z,24.29
2019-06-25T07:09:37.215Z,24.26
2019-06-25T07:10:35.318Z,24.31
2019-06-25T07:11:35.244Z,24.37
2019-06-25T07:12:35.212Z,24.37
2019-06-25T07:13:35.096Z,24.47
2019-06-25T07:14:34.967Z,24.52
2019-06-25T07:15:34.922Z,24.52
2019-06-25T07:16:34.852Z,24.51
2019-06-25T07:17:34.776Z,24.55
2019-06-25T07:18:35.506Z,24.63
2019-06-25T07:19:34.580Z,24.65
2019-06-25T07:20:34.477Z,24.76
2019-06-25T07:21:34.417Z,24.66
2019-06-25T07:22:34.353Z,24.84
2019-06-25T07:23:34.268Z,24.86
2019-06-25T07:24:34.195Z,24.90
2019-06-25T07:25:34.070Z,24.82
2019-06-25T07:26:33.987Z,24.82
2019-06-25T07:27:38.052Z,24.74
2019-06-25T07:28:34.021Z,24.85
2019-06-25T07:29:33.771Z,24.81
2019-06-25T07:30:33.677Z,24.85
2019-06-25T07:31:33.640Z,24.91
2019-06-25T07:32:33.528Z,24.97
2019-06-25T07:33:34.094Z,24.97
2019-06-25T07:34:33.399Z,25.03
2019-06-25T07:35:33.273Z,24.91
2019-06-25T07:36:33.330Z,24.94
2019-06-25T07:37:33.106Z,25.01
2019-06-25T07:38:33.029Z,25.06
2019-06-25T07:39:32.964Z,25.08
2019-06-25T07:40:32.859Z,25.06
2019-06-25T07:41:32.767Z,25.21
2019-06-25T07:42:32.736Z,25.22
2019-06-25T07:43:32.634Z,25.27
2019-06-25T07:44:32.588Z,25.36
2019-06-25T07:45:32.471Z,25.41
2019-06-25T07:46:32.384Z,25.48
2019-06-25T07:47:32.524Z,25.46
2019-06-25T07:48:32.234Z,25.59
2019-06-25T07:49:32.130Z,25.70
2019-06-25T07:50:32.068Z,25.70
2019-06-25T07:51:31.987Z,25.77
2019-06-25T07:52:31.905Z,25.86
2019-06-25T07:53:31.826Z,25.93
2019-06-25T07:54:31.742Z,25.92
2019-06-25T07:55:31.659Z,25.89
2019-06-25T07:56:36.571Z,25.93
2019-06-25T07:57:31.504Z,26.03
2019-06-25T07:58:31.430Z,26.10
2019-06-25T07:59:31.332Z,26.11
2019-06-25T08:00:31.284Z,26.20
2019-06-25T08:01:31.184Z,26.20
2019-06-25T08:02:31.095Z,26.30
2019-06-25T08:03:30.994Z,26.46
2019-06-25T08:04:30.939Z,26.56
2019-06-25T08:05:30.862Z,26.64
2019-06-25T08:06:30.774Z,26.73
2019-06-25T08:07:30.739Z,26.94
2019-06-25T08:08:30.620Z,26.86
2019-06-25T08:09:30.569Z,27.01
2019-06-25T08:10:30.446Z,26.89
2019-06-25T08:11:30.369Z,27.12
2019-06-25T08:12:30.280Z,27.13
2019-06-25T08:13:30.211Z,27.08
2019-06-25T08:14:30.193Z,27.15
2019-06-25T08:15:30.099Z,27.10
2019-06-25T08:16:29.978Z,27.12
2019-06-25T08:17:29.887Z,27.27
2019-06-25T08:18:29.804Z,27.42
2019-06-25T08:19:29.726Z,27.60
2019-06-25T08:20:29.665Z,27.75
2019-06-25T08:21:29.595Z,27.88
2019-06-25T08:22:29.476Z,27.95
2019-06-25T08:23:29.403Z,27.94
2019-06-25T08:24:29.352Z,28.12
2019-06-25T08:25:29.237Z,28.15
2019-06-25T08:26:29.171Z,28.40
2019-06-25T08:27:29.111Z,28.35
2019-06-25T08:28:28.996Z,28.42
2019-06-25T08:29:28.929Z,28.54
2019-06-25T08:30:28.837Z,28.69
2019-06-25T08:31:28.768Z,28.68
2019-06-25T08:32:28.695Z,28.80
2019-06-25T08:33:28.665Z,28.89
2019-06-25T08:34:41.421Z,29.02
2019-06-25T08:35:28.578Z,29.09
2019-06-25T08:36:28.363Z,29.15
2019-06-25T08:37:28.303Z,29.36
2019-06-25T08:38:28.223Z,29.37
2019-06-25T08:39:28.131Z,29.52
2019-06-25T08:40:28.071Z,29.58
2019-06-25T08:41:27.966Z,29.49
2019-06-25T08:42:27.881Z,29.59
2019-06-25T08:43:30.311Z,29.63
2019-06-25T08:44:27.889Z,29.59
2019-06-25T08:45:27.677Z,29.56
2019-06-25T08:46:27.595Z,29.61
2019-06-25T08:47:27.498Z,29.55
2019-06-25T08:48:27.428Z,29.61
2019-06-25T08:49:27.370Z,29.61
2019-06-25T08:50:27.252Z,29.62
2019-06-25T08:51:27.164Z,29.66
2019-06-25T08:52:27.100Z,29.68
2019-06-25T08:53:27.013Z,29.77
2019-06-25T08:54:26.954Z,29.76
2019-06-25T08:55:26.860Z,29.83
2019-06-25T08:56:26.773Z,29.84
2019-06-25T08:57:26.717Z,29.98
2019-06-25T08:58:26.615Z,29.86
2019-06-25T08:59:26.564Z,29.83
2019-06-25T09:00:26.508Z,29.76
2019-06-25T09:01:26.405Z,29.83
2019-06-25T09:02:26.317Z,29.95
2019-06-25T09:03:26.221Z,29.98
2019-06-25T09:04:26.149Z,29.92
2019-06-25T09:05:26.063Z,30.00
2019-06-25T09:06:25.974Z,30.05
2019-06-25T09:07:25.915Z,30.03
2019-06-25T09:08:25.839Z,30.11
2019-06-25T09:09:25.750Z,30.07
2019-06-25T09:10:25.681Z,30.14
2019-06-25T09:11:25.607Z,30.14
2019-06-25T09:12:25.542Z,30.18
2019-06-25T09:13:25.438Z,30.21
2019-06-25T09:14:25.362Z,30.21
2019-06-25T09:15:25.304Z,30.33
2019-06-25T09:16:25.209Z,30.40
2019-06-25T09:17:25.112Z,30.51
2019-06-25T09:18:25.033Z,30.64
2019-06-25T09:19:24.994Z,30.68
2019-06-25T09:20:24.894Z,30.77
2019-06-25T09:21:24.824Z,30.67
2019-06-25T09:22:24.736Z,30.71
2019-06-25T09:23:24.650Z,30.71
2019-06-25T09:24:24.582Z,30.77
2019-06-25T09:25:24.503Z,30.80
2019-06-25T09:26:24.423Z,30.83
2019-06-25T09:27:24.332Z,30.78
2019-06-25T09:28:24.244Z,30.92
2019-06-25T09:29:24.208Z,30.96
2019-06-25T09:30:24.125Z,30.99
2019-06-25T09:31:24.042Z,30.99
2019-06-25T09:32:23.946Z,30.92
2019-06-25T09:33:23.898Z,30.88
2019-06-25T09:34:23.788Z,30.70
2019-06-25T09:35:23.737Z,30.73
2019-06-25T09:36:23.635Z,30.73
2019-06-25T09:37:23.563Z,30.71
2019-06-25T09:38:23.486Z,30.80
2019-06-25T09:39:23.405Z,30.93
2019-06-25T09:40:23.370Z,30.88
2019-06-25T09:41:23.250Z,30.83
2019-06-25T09:42:23.186Z,30.59
2019-06-25T09:43:23.086Z,30.52
2019-06-25T09:44:23.007Z,30.30
2019-06-25T09:45:22.981Z,30.33
2019-06-25T09:46:22.850Z,30.28
2019-06-25T09:47:22.772Z,30.32
2019-06-25T09:48:22.718Z,30.24
2019-06-25T09:49:22.605Z,30.24
2019-06-25T09:50:22.540Z,30.22
2019-06-25T09:51:22.450Z,30.30
2019-06-25T09:52:22.387Z,30.39
2019-06-25T09:53:22.400Z,30.49
2019-06-25T09:54:22.228Z,30.62
2019-06-25T09:55:22.154Z,30.52
2019-06-25T09:56:22.059Z,30.52
2019-06-25T09:57:22.008Z,30.64
2019-06-25T09:58:21.893Z,30.73
2019-06-25T09:59:21.838Z,30.85
2019-06-25T10:00:21.743Z,30.83
2019-06-25T10:01:26.344Z,30.92
2019-06-25T10:02:21.601Z,30.99
2019-06-25T10:03:21.725Z,31.05
2019-06-25T10:04:21.489Z,30.95
2019-06-25T10:05:31.008Z,30.99
2019-06-25T10:06:21.301Z,30.95
2019-06-25T10:07:21.216Z,31.14
2019-06-25T10:08:21.153Z,31.15
2019-06-25T10:09:21.075Z,31.19
2019-06-25T10:10:20.975Z,31.23
2019-06-25T10:11:20.890Z,31.33
2019-06-25T10:12:20.824Z,31.38
2019-06-25T10:13:20.754Z,31.49
2019-06-25T10:14:20.667Z,31.57
2019-06-25T10:15:20.600Z,31.49
2019-06-25T10:16:20.514Z,31.61
2019-06-25T10:17:20.453Z,31.60
2019-06-25T10:18:20.369Z,31.79
2019-06-25T10:19:20.279Z,31.76
2019-06-25T10:20:20.187Z,31.71
2019-06-25T10:21:20.153Z,31.68
2019-06-25T10:22:20.058Z,31.51
2019-06-25T10:23:20.011Z,31.54
2019-06-25T10:24:19.877Z,31.39
2019-06-25T10:25:19.812Z,31.46
2019-06-25T10:26:19.734Z,31.57
2019-06-25T10:27:19.705Z,31.57
2019-06-25T10:28:29.649Z,31.57
2019-06-25T10:29:19.517Z,31.66
2019-06-25T10:30:19.450Z,31.74
2019-06-25T10:31:19.351Z,31.78
2019-06-25T10:32:19.326Z,31.68
2019-06-25T10:33:19.294Z,31.75
2019-06-25T10:34:19.105Z,31.79
2019-06-25T10:35:19.086Z,31.91
2019-06-25T10:36:18.985Z,32.06
2019-06-25T10:37:18.873Z,32.36
2019-06-25T10:38:18.794Z,32.54
2019-06-25T10:39:18.755Z,32.75
2019-06-25T10:40:18.662Z,32.87
2019-06-25T10:41:18.567Z,33.04
2019-06-25T10:42:18.495Z,33.14
2019-06-25T10:43:18.425Z,33.20
2019-06-25T10:44:18.358Z,33.37
2019-06-25T10:45:18.306Z,33.35
2019-06-25T10:46:18.211Z,33.33
2019-06-25T10:47:18.113Z,33.44
2019-06-25T10:48:22.039Z,33.52
2019-06-25T10:49:17.936Z,33.42
2019-06-25T10:50:17.885Z,33.32
2019-06-25T10:51:17.811Z,33.51
2019-06-25T10:52:17.725Z,33.52
2019-06-25T10:53:17.653Z,33.62
2019-06-25T10:54:17.567Z,33.44
2019-06-25T10:55:17.516Z,33.54
2019-06-25T10:56:17.475Z,33.49
2019-06-25T10:57:17.388Z,33.58
2019-06-25T10:58:17.263Z,33.49
2019-06-25T10:59:17.207Z,33.70
2019-06-25T11:00:17.114Z,33.84
2019-06-25T11:01:17.031Z,33.93
2019-06-25T11:02:16.971Z,33.88
2019-06-25T11:03:16.892Z,33.91
2019-06-25T11:04:16.837Z,33.93
2019-06-25T11:05:16.722Z,33.95
2019-06-25T11:06:16.640Z,34.00
2019-06-25T11:07:16.573Z,34.16
2019-06-25T11:08:16.511Z,34.15
2019-06-25T11:09:16.420Z,34.07
2019-06-25T11:10:16.345Z,34.08
2019-06-25T11:11:16.302Z,33.93
2019-06-25T11:12:16.208Z,33.92
2019-06-25T11:13:16.133Z,34.03
2019-06-25T11:14:16.045Z,34.16
2019-06-25T11:15:15.969Z,34.15
2019-06-25T11:16:15.874Z,34.22
2019-06-25T11:17:15.815Z,34.25
2019-06-25T11:18:15.740Z,34.35
2019-06-25T11:19:15.662Z,34.44
2019-06-25T11:20:15.602Z,34.59
2019-06-25T11:21:15.525Z,34.55
2019-06-25T11:22:15.452Z,34.48
2019-06-25T11:23:15.363Z,34.55
2019-06-25T11:24:15.274Z,34.56
2019-06-25T11:25:15.187Z,34.60
2019-06-25T11:26:22.709Z,34.72
2019-06-25T11:27:15.085Z,34.60
2019-06-25T11:28:14.977Z,34.75
2019-06-25T11:29:14.889Z,34.75
2019-06-25T11:30:14.823Z,34.82
2019-06-25T11:31:14.752Z,34.82
2019-06-25T11:32:14.659Z,34.86
2019-06-25T11:33:15.587Z,34.86
2019-06-25T11:34:14.543Z,34.72
2019-06-25T11:35:14.437Z,34.64
2019-06-25T11:36:21.330Z,34.55
2019-06-25T11:37:14.280Z,34.55
2019-06-25T11:38:14.198Z,34.47
2019-06-25T11:39:14.161Z,34.52
2019-06-25T11:40:14.234Z,34.60
2019-06-25T11:41:14.011Z,34.64
2019-06-25T11:42:13.955Z,34.73
2019-06-25T11:43:13.838Z,34.75
2019-06-25T11:44:13.750Z,34.85
2019-06-25T11:45:13.672Z,34.87
2019-06-25T11:46:13.602Z,34.85
2019-06-25T11:47:13.527Z,34.90
2019-06-25T11:48:13.432Z,35.05
2019-06-25T11:49:13.407Z,34.99
2019-06-25T11:50:13.299Z,35.01
2019-06-25T11:51:13.220Z,35.10
2019-06-25T11:52:13.147Z,35.10
2019-06-25T11:53:13.060Z,35.12
2019-06-25T11:54:12.993Z,35.21
2019-06-25T11:55:12.934Z,35.17
2019-06-25T11:56:12.837Z,35.14
2019-06-25T11:57:12.791Z,35.05
2019-06-25T11:58:12.706Z,35.14
2019-06-25T11:59:12.608Z,35.14
2019-06-25T12:00:12.556Z,35.02
2019-06-25T12:01:12.508Z,34.99
2019-06-25T12:02:12.437Z,34.94
2019-06-25T12:03:12.331Z,34.86
2019-06-25T12:04:12.247Z,34.82
2019-06-25T12:05:12.189Z,34.94
2019-06-25T12:06:12.121Z,35.01
2019-06-25T12:07:12.018Z,35.24
2019-06-25T12:08:11.946Z,35.28
2019-06-25T12:09:11.878Z,35.50
2019-06-25T12:10:11.779Z,35.53
2019-06-25T12:11:11.733Z,35.39
2019-06-25T12:12:11.647Z,35.35
2019-06-25T12:13:11.570Z,35.35
2019-06-25T12:14:11.489Z,35.31
2019-06-25T12:15:11.415Z,35.38
2019-06-25T12:16:11.360Z,35.29
2019-06-25T12:17:11.290Z,35.07
2019-06-25T12:18:11.191Z,35.09
2019-06-25T12:19:11.118Z,35.14
2019-06-25T12:20:11.039Z,35.21
2019-06-25T12:21:10.962Z,35.23
2019-06-25T12:22:10.893Z,35.35
2019-06-25T12:23:10.811Z,35.31
2019-06-25T12:24:10.765Z,35.44
2019-06-25T12:25:10.656Z,35.47
2019-06-25T12:26:10.589Z,35.50
2019-06-25T12:27:10.553Z,35.61
2019-06-25T12:28:10.431Z,35.60
2019-06-25T12:29:10.374Z,35.69
2019-06-25T12:30:10.303Z,35.60
2019-06-25T12:31:10.214Z,35.60
2019-06-25T12:32:10.150Z,35.66
2019-06-25T12:33:10.065Z,35.69
2019-06-25T12:34:10.023Z,35.75
2019-06-25T12:35:09.980Z,35.76
2019-06-25T12:36:09.837Z,35.85
2019-06-25T12:37:10.316Z,35.85
2019-06-25T12:38:09.719Z,35.81
2019-06-25T12:39:09.617Z,35.79
2019-06-25T12:40:09.572Z,35.87
2019-06-25T12:41:09.470Z,35.87
2019-06-25T12:42:09.393Z,35.75
2019-06-25T12:43:09.321Z,35.69
2019-06-25T12:44:09.252Z,35.72
2019-06-25T12:45:09.169Z,35.87
2019-06-25T12:46:09.114Z,35.84
2019-06-25T12:47:09.048Z,35.91
2019-06-25T12:48:08.976Z,36.00
2019-06-25T12:49:08.885Z,36.02
2019-06-25T12:50:08.827Z,35.95
2019-06-25T12:51:11.188Z,35.87